LGMT/MJT METAR and TAF weather

Enter ICAO airport designator
Station Type Date Time Source
LGMT METAR 2019/10/20 18:50 UTC NOAA

LGMT 201850Z 00000KT 9000 NSC 19/14 Q1019


Station Type Date Time Source
LGMT Decoded METAR 2019/10/20 18:50 UTC NOAA

Mytilini Airport , Greece (LGMT) 39-04N 026-36E 5M
Oct 20, 2019 - 02:50 PM EDT / 2019.10.20 1850 UTC
Wind: Calm:0
Visibility: 5 mile(s):0
Temperature: 66 F (19 C)
Dew Point: 57 F (14 C)
Relative Humidity: 72%
Pressure (altimeter): 30.09 in. Hg (1019 hPa)
ob: LGMT 201850Z 00000KT 9000 NSC 19/14 Q1019
cycle: 19

Station Type Date Time Source
LGMT TAF 2012/09/21 03:06 UTC NOAA

TAF LGMT 210200Z 2103/2115 VRB05KT 9999 SCT020
BECMG 2103/2105 30015KT PROB30
TEMPO 2103/2106 7000 RA SCT018 BKN030
BECMG 2107/2109 29012KT

Example: see airport list